KSC weather

Košice Airport
Košice, Košice, Slovakia

Public forecast

Using degrees Celsius for public forecast. Weather courtesy of forecast.io.

METAR (pilot weather report)

Retrieved 2019/05/25 21:30 UTC (0 seconds ago):

LZKZ 252130Z 36004KT CAVOK 14/10 Q1015

TAF (pilot weather forecast)

Retrieved 2019/05/25 18:39 UTC (2 hours ago):

TAF LZKZ 251700Z 2518/2618 24008KT CAVOK TEMPO 2518/2607 VRB02KT TEMPO 2608/2618 9999 FEW040